createdAt,value
2018-11-22T12:16:48.748Z,27.80
2018-11-22T12:19:17.024Z,32.47
2018-11-22T12:21:45.379Z,30.10
2018-11-22T12:24:13.948Z,31.90
2018-11-22T12:26:42.221Z,32.07
2018-11-22T12:29:10.708Z,26.73
2018-11-22T12:31:39.316Z,29.57
2018-11-22T12:34:13.045Z,32.60
2018-11-22T12:37:00.681Z,30.67
2018-11-22T12:39:29.236Z,31.07
2018-11-22T12:41:57.772Z,26.23
2018-11-22T12:44:26.153Z,34.70
2018-11-22T12:46:54.512Z,32.90
2018-11-22T12:49:23.152Z,33.83
2018-11-22T12:51:51.548Z,32.23
2018-11-22T12:54:20.184Z,30.13
2018-11-22T12:56:48.840Z,32.05
2018-11-22T12:59:17.451Z,35.47
2018-11-22T13:01:46.041Z,36.25
2018-11-22T13:04:14.577Z,30.85
2018-11-22T13:06:42.854Z,24.30
2018-11-22T13:09:11.154Z,33.37
2018-11-22T13:11:39.412Z,29.27
2018-11-22T13:14:07.685Z,29.67
2018-11-22T13:16:36.265Z,32.20
2018-11-22T13:19:04.839Z,35.30
2018-11-22T13:21:33.499Z,37.03
2018-11-22T13:24:01.824Z,35.10
2018-11-22T13:26:30.664Z,31.93
2018-11-22T13:28:59.340Z,30.80
2018-11-22T13:31:27.969Z,31.70
2018-11-22T13:33:56.716Z,31.70
2018-11-22T13:36:25.099Z,32.80
2018-11-22T13:38:53.409Z,38.40
2018-11-22T13:41:21.703Z,33.93
2018-11-22T13:43:49.986Z,25.83
2018-11-22T13:46:18.268Z,32.27
2018-11-22T13:48:46.708Z,29.83
2018-11-22T13:51:15.205Z,28.37
2018-11-22T13:53:43.492Z,30.70
2018-11-22T13:56:11.757Z,29.80
2018-11-22T13:58:40.020Z,31.10
2018-11-22T14:01:08.486Z,27.90
2018-11-22T14:03:37.001Z,25.73
2018-11-22T14:06:05.574Z,31.50
2018-11-22T14:08:34.649Z,31.15
2018-11-22T14:11:03.184Z,26.60
2018-11-22T14:13:31.685Z,34.07
2018-11-22T14:16:00.190Z,37.40
2018-11-22T14:18:28.484Z,31.90
2018-11-22T14:20:56.744Z,28.67
2018-11-22T14:23:25.370Z,33.25
2018-11-22T14:25:53.685Z,24.77
2018-11-22T14:28:22.977Z,30.20
2018-11-22T14:30:51.534Z,30.43
2018-11-22T14:33:20.067Z,26.90
2018-11-22T14:35:48.646Z,36.23
2018-11-22T14:38:17.050Z,30.07
2018-11-22T14:40:45.378Z,29.73
2018-11-22T14:43:13.944Z,37.85
2018-11-22T14:45:42.277Z,38.30
2018-11-22T14:48:10.853Z,33.95
2018-11-22T14:50:41.502Z,34.58
2018-11-22T14:53:13.334Z,33.60
2018-11-22T14:55:42.205Z,37.05
2018-11-22T14:58:11.403Z,29.80
2018-11-22T15:00:40.018Z,41.33
2018-11-22T15:03:08.696Z,36.73
2018-11-22T15:05:37.024Z,34.17
2018-11-22T15:08:05.748Z,41.80
2018-11-22T15:10:34.098Z,39.43
2018-11-22T15:13:03.001Z,37.23
2018-11-22T15:15:31.725Z,43.73
2018-11-22T15:18:00.607Z,38.23
2018-11-22T15:20:29.158Z,38.80
2018-11-22T15:22:57.672Z,37.50
2018-11-22T15:25:27.670Z,40.50
2018-11-22T15:27:56.135Z,41.90
2018-11-22T15:30:26.283Z,43.00
2018-11-22T15:32:55.043Z,43.40
2018-11-22T15:35:25.153Z,41.83
2018-11-22T15:37:54.126Z,48.07
2018-11-22T15:40:23.652Z,50.63
2018-11-22T15:42:53.621Z,41.63
2018-11-22T15:45:23.736Z,44.40
2018-11-22T15:47:52.048Z,46.80
2018-11-22T15:50:22.014Z,46.00
2018-11-22T15:52:50.320Z,44.40
2018-11-22T15:55:21.120Z,38.23
2018-11-22T15:57:48.979Z,41.63
2018-11-22T16:00:20.661Z,46.30
2018-11-22T16:02:49.531Z,39.20
2018-11-22T16:05:18.304Z,45.03
2018-11-22T16:07:46.860Z,42.75
2018-11-22T16:10:18.276Z,47.07
2018-11-22T16:12:48.005Z,48.23
2018-11-22T16:15:21.165Z,44.47
2018-11-22T16:17:49.734Z,39.80
2018-11-22T16:20:18.340Z,41.70
2018-11-22T16:22:46.636Z,45.97
2018-11-22T16:25:15.224Z,40.93
2018-11-22T16:27:43.540Z,45.00
2018-11-22T16:30:15.435Z,47.20
2018-11-22T16:32:44.488Z,46.35
2018-11-22T16:35:14.231Z,42.17
2018-11-22T16:37:43.347Z,34.88
2018-11-22T16:40:13.752Z,42.57
2018-11-22T16:42:43.060Z,46.50
2018-11-22T16:45:18.043Z,47.00
2018-11-22T16:47:46.672Z,51.02
2018-11-22T16:50:16.132Z,35.00
2018-11-22T16:52:44.472Z,48.13
2018-11-22T16:55:13.001Z,38.27
2018-11-22T16:57:42.358Z,40.03
2018-11-22T17:00:13.902Z,41.67
2018-11-22T17:02:42.368Z,40.90
2018-11-22T17:05:11.057Z,47.83
2018-11-22T17:07:39.379Z,45.63
2018-11-22T17:10:09.285Z,46.43
2018-11-22T17:12:37.568Z,45.73
2018-11-22T17:15:08.185Z,48.27
2018-11-22T17:17:36.610Z,56.40
2018-11-22T17:20:05.877Z,51.43
2018-11-22T17:22:34.485Z,44.07
2018-11-22T17:25:04.278Z,51.60
2018-11-22T17:27:32.849Z,54.20
2018-11-22T17:30:01.183Z,47.53
2018-11-22T17:32:29.732Z,49.20
2018-11-22T17:34:58.045Z,51.63
2018-11-22T17:37:26.401Z,42.97
2018-11-22T17:39:54.701Z,45.67
2018-11-22T17:42:23.061Z,43.37
2018-11-22T17:44:51.410Z,48.03
2018-11-22T17:47:20.026Z,51.53
2018-11-22T17:49:48.673Z,49.87
2018-11-22T17:52:17.228Z,52.37
2018-11-22T17:54:45.522Z,46.67
2018-11-22T17:57:14.110Z,51.48
2018-11-22T17:59:43.713Z,56.08
2018-11-22T18:02:11.989Z,53.13
2018-11-22T18:04:40.378Z,42.77
2018-11-22T18:07:08.670Z,49.10
2018-11-22T18:09:36.994Z,47.23
2018-11-22T18:12:06.034Z,48.53
2018-11-22T18:14:34.337Z,56.33
2018-11-22T18:22:01.966Z,58.60
2018-11-22T18:24:30.351Z,50.13
2018-11-22T18:26:58.916Z,49.40
2018-11-22T18:29:27.201Z,54.33
2018-11-22T18:31:55.516Z,55.50
2018-11-22T18:34:24.048Z,59.73
2018-11-22T18:36:52.363Z,58.27
2018-11-22T18:39:20.918Z,63.03
2018-11-22T18:41:49.181Z,52.50
2018-11-22T18:44:17.841Z,67.70
2018-11-22T18:46:46.284Z,62.77
2018-11-22T18:49:14.809Z,61.77
2018-11-22T18:51:43.397Z,58.07
2018-11-22T18:54:12.001Z,52.93
2018-11-22T18:56:40.465Z,74.20
2018-11-22T18:59:09.101Z,61.57
2018-11-22T19:01:37.735Z,64.13
2018-11-22T19:04:06.347Z,64.27
2018-11-22T19:06:35.329Z,62.50
2018-11-22T19:09:04.370Z,62.47
2018-11-22T19:11:33.324Z,60.33
2018-11-22T19:14:02.189Z,62.62
2018-11-22T19:16:31.023Z,62.80
2018-11-22T19:18:59.600Z,72.17
2018-11-22T19:21:28.091Z,77.73
2018-11-22T19:23:56.705Z,81.78
2018-11-22T19:26:25.014Z,76.63
2018-11-22T19:28:53.355Z,73.70
2018-11-22T19:31:21.741Z,60.73
2018-11-22T19:33:50.220Z,77.17
2018-11-22T19:36:18.816Z,78.80
2018-11-22T19:38:47.680Z,79.67
2018-11-22T19:41:16.234Z,76.17
2018-11-22T19:43:44.678Z,71.63
2018-11-22T19:46:12.945Z,76.10
2018-11-22T19:48:41.513Z,65.60
2018-11-22T19:51:09.801Z,74.20
2018-11-22T19:53:38.340Z,80.07
2018-11-22T19:56:06.912Z,71.47
2018-11-22T19:58:35.958Z,65.70
2018-11-22T20:01:07.670Z,66.80
2018-11-22T20:03:32.896Z,80.30
2018-11-22T20:06:01.478Z,98.33
2018-11-22T20:08:30.440Z,96.20
2018-11-22T20:10:59.108Z,75.12
2018-11-22T20:13:27.794Z,105.35
2018-11-22T20:15:56.370Z,77.93
2018-11-22T20:18:24.757Z,82.83
2018-11-22T20:20:53.190Z,77.57
2018-11-22T20:23:21.841Z,81.03
2018-11-22T20:25:49.789Z,78.50
2018-11-22T20:28:18.060Z,96.30
2018-11-22T20:30:46.656Z,84.65
2018-11-22T20:33:15.118Z,94.17
2018-11-22T20:35:43.609Z,88.63
2018-11-22T20:38:11.966Z,163.77
2018-11-22T20:40:40.304Z,144.70
2018-11-22T20:43:09.483Z,82.80
2018-11-22T20:45:41.031Z,71.53
2018-11-22T20:48:07.263Z,71.63
2018-11-22T20:50:36.788Z,67.93
2018-11-22T20:53:05.737Z,130.18
2018-11-22T20:55:36.428Z,101.20
2018-11-22T20:58:05.880Z,127.93
2018-11-22T21:00:35.846Z,83.60
2018-11-22T21:03:04.641Z,101.80
2018-11-22T21:05:33.129Z,87.63
2018-11-22T21:08:01.428Z,122.77
2018-11-22T21:10:30.877Z,124.95
2018-11-22T21:12:59.157Z,99.37
2018-11-22T21:15:28.650Z,134.30
2018-11-22T21:17:59.420Z,133.00
2018-11-22T21:20:29.891Z,131.75
2018-11-22T21:22:58.186Z,130.03
2018-11-22T21:25:26.884Z,119.20
2018-11-22T21:27:55.168Z,125.33
2018-11-22T21:30:27.877Z,92.90
2018-11-22T21:32:57.427Z,118.47
2018-11-22T21:35:26.078Z,173.13
2018-11-22T21:37:55.794Z,117.03
2018-11-22T21:40:24.868Z,159.60
2018-11-22T21:42:53.728Z,119.20
2018-11-22T21:45:23.412Z,73.73
2018-11-22T21:47:51.914Z,110.83
2018-11-22T21:50:21.474Z,114.97
2018-11-22T21:52:49.776Z,154.10
2018-11-22T21:55:20.212Z,83.30
2018-11-22T21:57:49.213Z,84.50
2018-11-22T22:00:20.136Z,81.87
2018-11-22T22:02:52.627Z,90.90
2018-11-22T22:05:18.801Z,102.22
2018-11-22T22:07:47.104Z,93.40
2018-11-22T22:10:15.655Z,69.50
2018-11-22T22:12:44.542Z,83.82
2018-11-22T22:15:19.337Z,83.75
2018-11-22T22:17:47.999Z,155.80
2018-11-22T22:20:19.932Z,111.67
2018-11-22T22:22:48.212Z,142.40
2018-11-22T22:25:17.828Z,105.23
2018-11-22T22:27:46.556Z,140.43
2018-11-22T22:30:18.506Z,124.18
2018-11-22T22:32:47.875Z,92.70
2018-11-22T22:35:16.431Z,76.40
2018-11-22T22:37:45.089Z,95.27
2018-11-22T22:40:15.341Z,57.60
2018-11-22T22:42:44.965Z,79.55
2018-11-22T22:45:14.188Z,88.90
2018-11-22T22:47:43.097Z,178.20
2018-11-22T22:50:14.309Z,102.70
2018-11-22T22:52:43.183Z,78.72
2018-11-22T22:55:12.207Z,86.87
2018-11-22T22:57:41.196Z,78.78
2018-11-22T23:00:16.364Z,78.30
2018-11-22T23:02:44.908Z,86.73
2018-11-22T23:05:13.488Z,82.20
2018-11-22T23:07:42.050Z,133.37
2018-11-22T23:10:10.721Z,121.03
2018-11-22T23:12:39.305Z,122.47
2018-11-22T23:15:10.164Z,81.87
2018-11-22T23:17:38.849Z,108.63
2018-11-22T23:20:10.733Z,156.73
2018-11-22T23:22:39.929Z,85.50
2018-11-22T23:25:08.537Z,83.10
2018-11-22T23:27:37.228Z,125.67
2018-11-22T23:30:10.751Z,83.33
2018-11-22T23:32:39.165Z,65.53
2018-11-22T23:35:08.578Z,103.30
2018-11-22T23:37:36.997Z,59.80
2018-11-22T23:40:07.424Z,76.43
2018-11-22T23:42:36.042Z,123.02
2018-11-22T23:45:05.932Z,77.40
2018-11-22T23:47:34.272Z,85.67
2018-11-22T23:50:02.963Z,80.00
2018-11-22T23:52:31.242Z,80.47
2018-11-22T23:54:59.552Z,87.73
2018-11-22T23:57:28.112Z,76.28
2018-11-22T23:59:56.416Z,115.57
